createdAt,value
2017-08-16T00:01:56.890Z,9.30
2017-08-16T00:04:23.118Z,10.90
2017-08-16T00:06:49.335Z,9.77
2017-08-16T00:09:15.631Z,10.43
2017-08-16T00:11:41.870Z,11.00
2017-08-16T00:14:08.106Z,9.97
2017-08-16T00:16:45.490Z,10.60
2017-08-16T00:19:12.442Z,11.33
2017-08-16T00:21:39.415Z,10.67
2017-08-16T00:24:05.658Z,9.73
2017-08-16T00:26:31.876Z,10.47
2017-08-16T00:28:58.090Z,9.77
2017-08-16T00:31:25.148Z,10.17
2017-08-16T00:33:51.406Z,9.40
2017-08-16T00:36:17.622Z,8.53
2017-08-16T00:38:44.595Z,8.83
2017-08-16T00:41:10.811Z,10.40
2017-08-16T00:43:37.042Z,10.03
2017-08-16T00:46:03.342Z,8.93
2017-08-16T00:48:29.583Z,9.00
2017-08-16T00:50:55.838Z,8.00
2017-08-16T00:53:22.894Z,8.77
2017-08-16T00:55:56.847Z,8.33
2017-08-16T00:58:23.090Z,8.77
2017-08-16T01:00:49.367Z,9.10
2017-08-16T01:03:16.346Z,8.30
2017-08-16T01:05:42.590Z,7.60
2017-08-16T01:08:08.807Z,9.00
2017-08-16T01:10:35.030Z,8.27
2017-08-16T01:13:02.061Z,9.40
2017-08-16T01:15:29.046Z,8.47
2017-08-16T01:17:56.574Z,8.93
2017-08-16T01:20:22.831Z,8.60
2017-08-16T01:22:49.079Z,9.20
2017-08-16T01:25:15.326Z,9.20
2017-08-16T01:27:41.558Z,8.00
2017-08-16T01:30:07.783Z,7.83
2017-08-16T01:32:34.012Z,8.70
2017-08-16T01:35:01.039Z,8.07
2017-08-16T01:37:27.275Z,9.20
2017-08-16T01:39:54.267Z,8.77
2017-08-16T01:42:20.499Z,8.80
2017-08-16T01:44:46.724Z,9.87
2017-08-16T01:47:13.673Z,11.13
2017-08-16T01:49:40.646Z,9.50
2017-08-16T01:52:06.892Z,9.13
2017-08-16T01:54:33.118Z,8.80
2017-08-16T01:57:00.119Z,8.40
2017-08-16T01:59:26.346Z,8.07
2017-08-16T02:01:52.603Z,7.90
2017-08-16T02:04:19.582Z,8.37
2017-08-16T02:06:45.806Z,8.47
2017-08-16T02:09:12.023Z,9.70
2017-08-16T02:11:39.006Z,9.87
2017-08-16T02:14:05.270Z,9.10
2017-08-16T02:16:31.499Z,10.70
2017-08-16T02:21:33.120Z,12.77
2017-08-16T02:24:00.116Z,12.30
2017-08-16T02:26:26.342Z,11.93
2017-08-16T02:28:52.590Z,13.17
2017-08-16T02:31:18.824Z,14.63
2017-08-16T02:33:45.043Z,12.73
2017-08-16T02:36:11.314Z,14.23
2017-08-16T02:38:38.297Z,14.00
2017-08-16T02:41:05.262Z,17.23
2017-08-16T02:43:33.121Z,16.27
2017-08-16T02:46:00.095Z,18.10
2017-08-16T02:48:26.318Z,18.80
2017-08-16T02:50:53.314Z,22.33
2017-08-16T02:53:19.527Z,24.13
2017-08-16T02:55:45.746Z,26.27
2017-08-16T02:58:11.991Z,29.10
2017-08-16T03:00:38.218Z,24.57
2017-08-16T03:03:12.223Z,26.00
2017-08-16T03:05:40.420Z,25.47
2017-08-16T03:08:06.634Z,25.93
2017-08-16T03:10:34.534Z,29.87
2017-08-16T03:13:00.790Z,32.17
2017-08-16T03:15:27.014Z,31.33
2017-08-16T03:17:54.071Z,33.00
2017-08-16T03:20:28.110Z,31.20
2017-08-16T03:22:54.358Z,29.07
2017-08-16T03:25:20.658Z,25.80
2017-08-16T03:27:46.880Z,26.60
2017-08-16T03:30:13.112Z,29.20
2017-08-16T03:32:39.362Z,33.77
2017-08-16T03:35:05.586Z,32.30
2017-08-16T03:37:32.690Z,32.83
2017-08-16T03:39:59.662Z,36.07
2017-08-16T03:42:25.878Z,30.90
2017-08-16T03:44:52.929Z,36.93
2017-08-16T03:47:19.941Z,36.40
2017-08-16T03:49:46.151Z,37.47
2017-08-16T03:52:12.410Z,38.47
2017-08-16T03:54:39.419Z,36.90
2017-08-16T03:57:05.647Z,40.43
2017-08-16T03:59:31.871Z,44.10
2017-08-16T04:01:58.827Z,44.30
2017-08-16T04:04:25.798Z,45.13
2017-08-16T04:06:52.098Z,48.90
2017-08-16T04:09:18.330Z,48.27
2017-08-16T04:11:45.301Z,52.13
2017-08-16T04:14:11.653Z,53.20
2017-08-16T04:16:37.883Z,57.40
2017-08-16T04:19:04.158Z,59.90
2017-08-16T04:21:30.771Z,61.60
2017-08-16T04:23:56.990Z,64.40
2017-08-16T04:26:23.218Z,64.80
2017-08-16T04:28:49.510Z,65.30
2017-08-16T04:31:15.743Z,64.93
2017-08-16T04:33:41.951Z,66.30
2017-08-16T04:36:08.243Z,73.47
2017-08-16T04:38:34.454Z,71.27
2017-08-16T04:41:00.690Z,70.43
2017-08-16T04:43:27.070Z,71.90
2017-08-16T04:45:53.285Z,72.87
2017-08-16T04:48:19.507Z,74.03
2017-08-16T04:50:46.585Z,79.70
2017-08-16T04:53:13.587Z,77.37
2017-08-16T04:55:39.831Z,73.20
2017-08-16T04:58:06.110Z,73.40
2017-08-16T05:00:33.075Z,77.17
2017-08-16T05:02:59.328Z,72.30
2017-08-16T05:05:25.694Z,77.13
2017-08-16T05:07:51.903Z,71.13
2017-08-16T05:10:18.117Z,67.17
2017-08-16T05:12:51.907Z,66.33
2017-08-16T05:15:18.886Z,67.17
2017-08-16T05:17:45.140Z,71.83
2017-08-16T05:20:11.410Z,75.80
2017-08-16T05:22:38.899Z,67.97
2017-08-16T05:25:05.145Z,71.07
2017-08-16T05:27:31.430Z,74.87
2017-08-16T05:29:57.683Z,66.53
2017-08-16T05:32:23.917Z,72.53
2017-08-16T05:34:50.682Z,69.23
2017-08-16T05:37:17.676Z,73.03
2017-08-16T05:39:43.923Z,69.03
2017-08-16T05:42:10.207Z,72.60
2017-08-16T05:44:36.445Z,70.17
2017-08-16T05:47:02.698Z,71.27
2017-08-16T05:49:28.963Z,63.77
2017-08-16T05:51:55.168Z,67.70
2017-08-16T05:54:21.402Z,65.60
2017-08-16T05:56:48.632Z,72.67
2017-08-16T05:59:15.596Z,66.07
2017-08-16T06:01:41.842Z,64.90
2017-08-16T06:04:08.103Z,68.00
2017-08-16T06:06:34.485Z,66.13
2017-08-16T06:09:00.783Z,62.07
2017-08-16T06:11:27.022Z,60.00
2017-08-16T06:13:53.270Z,59.90
2017-08-16T06:16:20.299Z,53.67
2017-08-16T06:18:47.402Z,56.50
2017-08-16T06:21:13.799Z,54.43
2017-08-16T06:23:52.056Z,53.90
2017-08-16T06:26:19.014Z,48.90
2017-08-16T06:28:52.131Z,47.67
2017-08-16T06:31:25.414Z,47.97
2017-08-16T06:33:52.229Z,47.90
2017-08-16T06:36:19.221Z,41.40
2017-08-16T06:38:45.507Z,41.60
2017-08-16T06:41:12.544Z,38.93
2017-08-16T06:43:38.794Z,38.37
2017-08-16T06:46:05.782Z,36.03
2017-08-16T06:48:32.083Z,35.60
2017-08-16T06:50:58.318Z,35.97
2017-08-16T06:53:24.567Z,38.83
2017-08-16T06:55:59.090Z,37.53
2017-08-16T06:58:26.050Z,34.73
2017-08-16T07:00:52.346Z,32.97
2017-08-16T07:03:18.603Z,29.93
2017-08-16T07:05:44.859Z,28.73
2017-08-16T07:08:11.136Z,26.40
2017-08-16T07:10:37.791Z,27.87
2017-08-16T07:13:04.047Z,24.67
2017-08-16T07:15:30.334Z,25.30
2017-08-16T07:17:57.670Z,22.40
2017-08-16T07:20:23.916Z,21.73
2017-08-16T07:22:50.165Z,20.50
2017-08-16T07:25:17.566Z,24.63
2017-08-16T07:27:44.551Z,21.80
2017-08-16T07:30:10.839Z,18.87
2017-08-16T07:32:37.215Z,18.17
2017-08-16T07:35:03.480Z,18.23
2017-08-16T07:37:29.734Z,16.90
2017-08-16T07:39:56.227Z,17.87
2017-08-16T07:42:23.235Z,16.43
2017-08-16T07:44:49.556Z,14.37
2017-08-16T07:47:15.829Z,15.70
2017-08-16T07:49:42.067Z,13.43
2017-08-16T07:52:09.051Z,12.97
2017-08-16T07:54:35.334Z,13.23
2017-08-16T07:57:01.567Z,13.10
2017-08-16T07:59:27.795Z,13.30
2017-08-16T08:01:54.131Z,14.03
2017-08-16T08:04:20.399Z,11.93
2017-08-16T08:06:47.386Z,12.23
2017-08-16T08:09:13.639Z,11.47
2017-08-16T08:11:39.871Z,11.73
2017-08-16T08:14:06.175Z,10.80
2017-08-16T08:16:32.612Z,8.90
2017-08-16T08:19:05.761Z,10.27
2017-08-16T08:21:32.095Z,10.73
2017-08-16T08:23:59.518Z,8.70
2017-08-16T08:26:37.414Z,9.00
2017-08-16T08:29:03.690Z,10.17
2017-08-16T08:31:29.955Z,10.40
2017-08-16T08:33:56.250Z,9.00
2017-08-16T08:36:22.509Z,8.87
2017-08-16T08:38:49.526Z,7.73
2017-08-16T08:41:16.218Z,8.93
2017-08-16T08:43:43.218Z,8.70
2017-08-16T08:46:09.499Z,8.73
2017-08-16T08:48:35.809Z,8.07
2017-08-16T08:51:02.055Z,8.63
2017-08-16T08:53:28.391Z,8.30
2017-08-16T08:55:54.699Z,7.30
2017-08-16T08:58:20.952Z,7.27
2017-08-16T09:00:47.202Z,8.83
2017-08-16T09:05:46.060Z,17.30
2017-08-16T09:08:12.325Z,9.00
2017-08-16T09:10:38.599Z,7.37
2017-08-16T09:13:05.064Z,8.53
2017-08-16T09:15:31.290Z,8.40
2017-08-16T09:17:58.268Z,8.70
2017-08-16T09:20:24.558Z,7.10
2017-08-16T09:22:50.807Z,7.13
2017-08-16T09:25:17.118Z,6.03
2017-08-16T09:27:44.810Z,5.23
2017-08-16T09:30:11.051Z,5.90
2017-08-16T09:32:37.371Z,8.03
2017-08-16T09:35:04.422Z,6.10
2017-08-16T09:37:30.666Z,7.00
2017-08-16T09:39:56.951Z,5.43
2017-08-16T09:42:23.319Z,4.37
2017-08-16T09:44:49.582Z,4.27
2017-08-16T09:47:15.826Z,5.50
2017-08-16T09:49:42.946Z,4.87
2017-08-16T09:52:09.198Z,12.70
2017-08-16T09:54:35.434Z,6.03
2017-08-16T09:57:02.781Z,5.20
2017-08-16T09:59:29.026Z,5.10
2017-08-16T10:01:55.299Z,4.27
2017-08-16T10:04:21.574Z,3.50
2017-08-16T10:06:48.619Z,3.60
2017-08-16T10:09:14.854Z,5.97
2017-08-16T10:11:41.156Z,5.43
2017-08-16T10:14:07.436Z,3.97
2017-08-16T10:16:33.794Z,4.67
2017-08-16T10:19:00.103Z,23.63
2017-08-16T10:21:26.404Z,7.30
2017-08-16T10:23:52.647Z,5.80
2017-08-16T10:26:18.926Z,4.93
2017-08-16T10:28:46.738Z,5.10
2017-08-16T10:31:12.979Z,4.60
2017-08-16T10:33:39.813Z,7.70
2017-08-16T10:36:06.116Z,4.23
2017-08-16T10:38:33.107Z,3.90
2017-08-16T10:40:59.510Z,3.43
2017-08-16T10:43:26.510Z,3.80
2017-08-16T10:45:52.762Z,3.50
2017-08-16T10:48:19.114Z,3.47
2017-08-16T10:50:45.469Z,4.30
2017-08-16T10:53:11.698Z,4.13
2017-08-16T10:55:38.846Z,4.43
2017-08-16T10:58:05.106Z,4.30
2017-08-16T11:00:32.092Z,3.87
2017-08-16T11:02:58.487Z,3.50
2017-08-16T11:05:24.715Z,3.63
2017-08-16T11:07:50.981Z,4.37
2017-08-16T11:10:17.235Z,4.70
2017-08-16T11:12:43.467Z,3.67
2017-08-16T11:15:09.760Z,3.50
2017-08-16T11:17:36.139Z,5.67
2017-08-16T11:20:02.396Z,7.27
2017-08-16T11:22:28.684Z,3.50
2017-08-16T11:24:55.698Z,3.00
2017-08-16T11:27:21.922Z,4.50
2017-08-16T11:29:59.907Z,3.60
2017-08-16T11:32:26.138Z,2.83
2017-08-16T11:34:52.421Z,2.70
2017-08-16T11:37:19.516Z,3.93
2017-08-16T11:39:45.782Z,4.53
2017-08-16T11:42:12.038Z,2.70
2017-08-16T11:44:38.323Z,4.87
2017-08-16T11:47:04.551Z,3.20
2017-08-16T11:49:31.538Z,2.17
2017-08-16T11:52:04.899Z,1.80
2017-08-16T11:54:31.904Z,2.30
2017-08-16T11:56:58.171Z,3.53
2017-08-16T11:59:26.079Z,5.57
2017-08-16T12:01:52.307Z,2.07
2017-08-16T12:04:18.559Z,2.87
2017-08-16T12:06:44.855Z,3.77
2017-08-16T12:09:18.791Z,2.57
2017-08-16T12:11:45.019Z,2.60
2017-08-16T12:14:11.270Z,2.70
2017-08-16T12:16:38.342Z,1.90
2017-08-16T12:19:04.832Z,2.13
2017-08-16T12:21:31.847Z,6.93
2017-08-16T12:23:58.102Z,2.37
2017-08-16T12:26:24.371Z,2.80
2017-08-16T12:28:50.619Z,1.83
2017-08-16T12:31:17.214Z,2.70
2017-08-16T12:33:43.598Z,2.77
2017-08-16T12:36:09.849Z,2.00
2017-08-16T12:38:43.842Z,2.40
2017-08-16T12:41:10.106Z,2.47
2017-08-16T12:43:36.342Z,2.63
2017-08-16T12:46:02.775Z,1.80
2017-08-16T12:48:29.018Z,4.30
2017-08-16T12:50:55.266Z,2.17
2017-08-16T12:53:21.536Z,1.60
2017-08-16T12:55:47.810Z,2.10
2017-08-16T12:58:14.054Z,2.07
2017-08-16T13:00:41.232Z,2.77
2017-08-16T13:03:08.243Z,2.23
2017-08-16T13:05:34.483Z,1.73
2017-08-16T13:08:00.800Z,2.00
2017-08-16T13:10:27.082Z,1.70
2017-08-16T13:12:53.331Z,1.43
2017-08-16T13:15:19.603Z,1.67
2017-08-16T13:17:45.891Z,1.97
2017-08-16T13:20:12.245Z,1.93
2017-08-16T13:22:40.870Z,1.83
2017-08-16T13:25:07.106Z,2.20
2017-08-16T13:27:33.342Z,1.60
2017-08-16T13:29:59.582Z,2.20
2017-08-16T13:32:26.822Z,1.70
2017-08-16T13:34:53.822Z,2.10
2017-08-16T13:37:20.218Z,1.50
2017-08-16T13:39:46.484Z,2.30
2017-08-16T13:42:12.740Z,1.90
2017-08-16T13:44:39.672Z,2.20
2017-08-16T13:47:05.939Z,5.33
2017-08-16T13:49:32.974Z,1.90
2017-08-16T13:51:59.267Z,1.80
2017-08-16T13:54:25.515Z,1.70
2017-08-16T13:56:51.796Z,1.90
2017-08-16T13:59:18.826Z,1.83
2017-08-16T14:01:45.148Z,2.00
2017-08-16T14:04:11.416Z,1.73
2017-08-16T14:06:39.241Z,1.93
2017-08-16T14:09:05.475Z,1.83
2017-08-16T14:11:31.719Z,1.50
2017-08-16T14:13:57.998Z,1.83
2017-08-16T14:16:25.002Z,2.13
2017-08-16T14:18:51.243Z,2.80
2017-08-16T14:21:17.510Z,1.50
2017-08-16T14:23:43.763Z,1.80
2017-08-16T14:26:10.015Z,1.80
2017-08-16T14:28:37.082Z,1.60
2017-08-16T14:31:03.374Z,1.37
2017-08-16T14:33:40.895Z,1.60
2017-08-16T14:36:07.150Z,1.70
2017-08-16T14:38:33.382Z,1.53
2017-08-16T14:40:59.663Z,1.63
2017-08-16T14:43:25.903Z,1.90
2017-08-16T14:45:52.172Z,1.27
2017-08-16T14:48:19.683Z,7.90
2017-08-16T14:50:45.958Z,2.10
2017-08-16T14:53:13.214Z,1.70
2017-08-16T14:55:40.367Z,1.43
2017-08-16T14:58:07.363Z,1.63
2017-08-16T15:00:33.634Z,1.40
2017-08-16T15:02:59.918Z,1.53
2017-08-16T15:05:26.203Z,1.13
2017-08-16T15:07:52.491Z,1.60
2017-08-16T15:10:19.642Z,1.27
2017-08-16T15:12:45.908Z,1.63
2017-08-16T15:15:12.162Z,1.50
2017-08-16T15:17:38.546Z,1.17
2017-08-16T15:20:05.523Z,1.40
2017-08-16T15:22:31.766Z,1.20
2017-08-16T15:24:58.026Z,1.20
2017-08-16T15:27:24.253Z,1.20
2017-08-16T15:29:50.507Z,1.03
2017-08-16T15:32:17.602Z,1.20
2017-08-16T15:34:44.506Z,1.30
2017-08-16T15:37:11.520Z,1.33
2017-08-16T15:39:37.802Z,2.07
2017-08-16T15:42:04.047Z,1.47
2017-08-16T15:44:30.303Z,1.50
2017-08-16T15:46:57.353Z,1.60
2017-08-16T15:49:23.622Z,2.07
2017-08-16T15:51:49.975Z,1.53
2017-08-16T15:54:16.772Z,1.90
2017-08-16T15:56:43.029Z,1.50
2017-08-16T15:59:09.250Z,1.33
2017-08-16T16:01:35.653Z,2.30
2017-08-16T16:04:01.933Z,1.80
2017-08-16T16:06:28.207Z,1.30
2017-08-16T16:08:54.478Z,1.50
2017-08-16T16:11:21.509Z,2.07
2017-08-16T16:13:47.766Z,1.57
2017-08-16T16:16:14.062Z,2.30
2017-08-16T16:18:40.430Z,2.03
2017-08-16T16:21:06.679Z,1.73
2017-08-16T16:23:32.972Z,1.63
2017-08-16T16:25:59.953Z,3.30
2017-08-16T16:28:26.290Z,5.30
2017-08-16T16:30:52.580Z,4.00
2017-08-16T16:33:18.939Z,2.80
2017-08-16T16:35:46.295Z,3.80
2017-08-16T16:38:12.625Z,3.17
2017-08-16T16:40:38.919Z,4.77
2017-08-16T16:43:05.202Z,5.03
2017-08-16T16:45:32.393Z,3.83
2017-08-16T16:47:59.381Z,2.63
2017-08-16T16:50:25.626Z,6.17
2017-08-16T16:52:52.268Z,4.27
2017-08-16T16:55:18.523Z,6.37
2017-08-16T16:57:44.784Z,5.30
2017-08-16T17:00:11.892Z,3.90
2017-08-16T17:02:38.581Z,3.70
2017-08-16T17:05:05.578Z,3.77
2017-08-16T17:07:31.877Z,2.83
2017-08-16T17:09:58.874Z,2.50
2017-08-16T17:12:25.158Z,2.40
2017-08-16T17:14:51.448Z,3.00
2017-08-16T17:17:17.753Z,1.73
2017-08-16T17:19:44.766Z,2.73
2017-08-16T17:22:11.057Z,3.90
2017-08-16T17:24:37.328Z,2.93
2017-08-16T17:27:03.614Z,6.30
2017-08-16T17:29:30.040Z,5.27
2017-08-16T17:31:56.348Z,2.50
2017-08-16T17:34:22.615Z,5.87
2017-08-16T17:36:49.427Z,4.40
2017-08-16T17:39:15.707Z,5.10
2017-08-16T17:41:41.977Z,3.70
2017-08-16T17:44:08.723Z,3.00
2017-08-16T17:46:34.986Z,3.60
2017-08-16T17:49:02.202Z,4.27
2017-08-16T17:51:28.619Z,3.93
2017-08-16T17:53:54.921Z,2.60
2017-08-16T17:56:21.954Z,3.60
2017-08-16T17:58:48.244Z,4.63
2017-08-16T18:01:14.544Z,2.87
2017-08-16T18:03:41.566Z,3.73
2017-08-16T18:06:08.379Z,2.50
2017-08-16T18:08:34.634Z,2.40
2017-08-16T18:11:00.923Z,3.10
2017-08-16T18:13:27.978Z,3.03
2017-08-16T18:15:55.027Z,2.40
2017-08-16T18:18:22.025Z,3.27
2017-08-16T18:20:48.476Z,3.40
2017-08-16T18:23:14.746Z,3.17
2017-08-16T18:25:41.019Z,3.47
2017-08-16T18:28:08.278Z,3.30
2017-08-16T18:30:34.547Z,4.10
2017-08-16T18:33:01.618Z,3.83
2017-08-16T18:35:27.927Z,3.67
2017-08-16T18:37:55.046Z,4.00
2017-08-16T18:40:21.311Z,3.40
2017-08-16T18:42:47.611Z,3.23
2017-08-16T18:45:13.874Z,3.17
2017-08-16T18:47:40.151Z,3.97
2017-08-16T18:50:07.353Z,2.93
2017-08-16T18:52:33.676Z,2.50
2017-08-16T18:55:00.031Z,3.20
2017-08-16T18:57:26.672Z,2.60
2017-08-16T18:59:52.977Z,2.40
2017-08-16T19:02:20.004Z,2.80
2017-08-16T19:04:46.307Z,3.10
2017-08-16T19:07:12.591Z,3.30
2017-08-16T19:09:39.614Z,3.80
2017-08-16T19:12:06.535Z,3.60
2017-08-16T19:14:32.871Z,4.70
2017-08-16T19:16:59.222Z,3.20
2017-08-16T19:19:26.410Z,7.30
2017-08-16T19:21:52.715Z,49.80
2017-08-16T19:24:19.045Z,42.30
2017-08-16T19:26:45.353Z,47.30
2017-08-16T19:29:17.755Z,16.03
2017-08-16T19:31:44.054Z,6.90
2017-08-16T19:34:10.619Z,5.50
2017-08-16T19:36:36.934Z,6.73
2017-08-16T19:39:04.191Z,5.10
2017-08-16T19:41:30.461Z,5.37
2017-08-16T19:43:56.878Z,4.67
2017-08-16T19:46:23.207Z,5.20
2017-08-16T19:48:49.499Z,5.63
2017-08-16T19:51:15.761Z,4.80
2017-08-16T19:53:42.591Z,7.03
2017-08-16T19:56:08.860Z,7.80
2017-08-16T19:58:35.881Z,8.70
2017-08-16T20:01:02.218Z,6.90
2017-08-16T20:03:28.498Z,8.93
2017-08-16T20:05:54.768Z,7.50
2017-08-16T20:08:21.184Z,7.10
2017-08-16T20:10:48.159Z,6.30
2017-08-16T20:13:14.439Z,7.20
2017-08-16T20:15:41.521Z,7.20
2017-08-16T20:18:08.499Z,7.40
2017-08-16T20:20:34.796Z,6.70
2017-08-16T20:23:01.804Z,7.27
2017-08-16T20:25:28.050Z,7.53
2017-08-16T20:27:54.291Z,7.27
2017-08-16T20:30:20.566Z,6.63
2017-08-16T20:32:47.542Z,6.30
2017-08-16T20:35:13.833Z,6.80
2017-08-16T20:37:41.739Z,7.80
2017-08-16T20:40:09.894Z,9.27
2017-08-16T20:42:36.878Z,8.90
2017-08-16T20:45:03.278Z,9.23
2017-08-16T20:47:29.519Z,9.70
2017-08-16T20:49:56.510Z,49.97
2017-08-16T20:52:22.899Z,71.50
2017-08-16T20:54:49.214Z,38.20
2017-08-16T20:57:15.508Z,11.67
2017-08-16T20:59:41.878Z,8.27
2017-08-16T21:02:08.174Z,8.57
2017-08-16T21:04:34.427Z,6.73
2017-08-16T21:07:00.715Z,8.17
2017-08-16T21:09:26.940Z,7.80
2017-08-16T21:11:54.163Z,7.43
2017-08-16T21:14:20.458Z,8.13
2017-08-16T21:16:47.439Z,7.70
2017-08-16T21:19:13.694Z,7.30
2017-08-16T21:24:14.226Z,7.47
2017-08-16T21:26:40.479Z,7.90
2017-08-16T21:29:06.746Z,8.60
2017-08-16T21:31:33.767Z,7.73
2017-08-16T21:33:59.999Z,8.40
2017-08-16T21:36:26.264Z,8.70
2017-08-16T21:38:52.531Z,7.33
2017-08-16T21:41:18.891Z,8.30
2017-08-16T21:43:45.161Z,7.57
2017-08-16T21:46:11.865Z,7.70
2017-08-16T21:48:38.127Z,7.43
2017-08-16T21:51:04.367Z,7.40
2017-08-16T21:53:30.659Z,7.53
2017-08-16T21:55:56.918Z,8.17
2017-08-16T21:58:23.154Z,8.40
2017-08-16T22:00:49.439Z,7.30
2017-08-16T22:03:15.706Z,7.50
2017-08-16T22:05:41.964Z,8.17
2017-08-16T22:08:08.899Z,7.50
2017-08-16T22:10:35.172Z,6.93
2017-08-16T22:13:01.443Z,6.43
2017-08-16T22:15:27.859Z,7.07
2017-08-16T22:17:54.139Z,7.17
2017-08-16T22:20:20.387Z,7.40
2017-08-16T22:22:46.663Z,6.80
2017-08-16T22:25:12.905Z,7.77
2017-08-16T22:27:39.167Z,6.73
2017-08-16T22:30:07.062Z,7.73
2017-08-16T22:32:33.339Z,8.47
2017-08-16T22:34:59.664Z,7.50
2017-08-16T22:37:25.923Z,7.03
2017-08-16T22:39:52.918Z,6.73
2017-08-16T22:42:30.403Z,6.63
2017-08-16T22:44:56.655Z,7.33
2017-08-16T22:47:22.917Z,6.80
2017-08-16T22:49:49.718Z,6.80
2017-08-16T22:52:15.982Z,5.57
2017-08-16T22:54:42.211Z,6.40
2017-08-16T22:57:08.506Z,6.63
2017-08-16T22:59:35.486Z,6.60
2017-08-16T23:02:01.758Z,6.57
2017-08-16T23:04:28.023Z,6.17
2017-08-16T23:06:55.083Z,5.90
2017-08-16T23:09:22.098Z,6.23
2017-08-16T23:11:49.299Z,7.20
2017-08-16T23:14:16.302Z,6.73
2017-08-16T23:16:42.574Z,6.63
2017-08-16T23:19:08.839Z,8.30
2017-08-16T23:21:35.114Z,6.83
2017-08-16T23:24:01.375Z,6.60
2017-08-16T23:26:27.734Z,7.03
2017-08-16T23:28:54.272Z,6.20
2017-08-16T23:31:21.251Z,6.10
2017-08-16T23:33:48.083Z,6.20
2017-08-16T23:36:14.335Z,4.90
2017-08-16T23:38:40.622Z,5.70
2017-08-16T23:41:07.711Z,5.43
2017-08-16T23:43:34.327Z,6.20
2017-08-16T23:46:07.496Z,5.90
2017-08-16T23:48:33.748Z,5.63
2017-08-16T23:50:59.994Z,5.93
2017-08-16T23:53:27.580Z,6.30
2017-08-16T23:55:53.904Z,5.90
2017-08-16T23:58:20.899Z,5.20
